createdAt,value
2022-10-28T00:01:23.233Z,14.56
2022-10-28T00:03:53.363Z,14.53
2022-10-28T00:06:27.901Z,14.53
2022-10-28T00:08:55.784Z,14.52
2022-10-28T00:11:32.437Z,14.52
2022-10-28T00:14:03.560Z,14.52
2022-10-28T00:16:34.584Z,14.49
2022-10-28T00:19:03.892Z,14.53
2022-10-28T00:21:37.099Z,14.54
2022-10-28T00:24:04.986Z,14.52
2022-10-28T00:26:36.331Z,14.53
2022-10-28T00:29:07.021Z,14.55
2022-10-28T00:31:36.263Z,14.55
2022-10-28T00:34:06.688Z,14.54
2022-10-28T00:36:37.468Z,14.54
2022-10-28T00:39:21.668Z,14.55
2022-10-28T00:41:52.523Z,14.54
2022-10-28T00:44:52.989Z,14.55
2022-10-28T00:47:52.558Z,14.52
2022-10-28T00:50:48.700Z,14.52
2022-10-28T00:53:26.947Z,14.56
2022-10-28T00:55:56.323Z,14.55
2022-10-28T00:58:26.397Z,14.57
2022-10-28T01:00:54.332Z,14.57
2022-10-28T01:03:21.832Z,14.57
2022-10-28T01:05:50.755Z,14.57
2022-10-28T01:08:17.961Z,14.57
2022-10-28T01:11:20.972Z,14.56
2022-10-28T01:14:17.395Z,14.58
2022-10-28T01:17:04.116Z,14.58
2022-10-28T01:20:36.088Z,14.58
2022-10-28T01:23:43.281Z,14.56
2022-10-28T01:27:02.056Z,14.53
2022-10-28T01:30:01.757Z,14.54
2022-10-28T01:33:28.082Z,14.50
2022-10-28T01:36:13.679Z,14.54
2022-10-28T01:38:59.083Z,14.54
2022-10-28T01:41:48.987Z,14.55
2022-10-28T01:44:31.807Z,14.52
2022-10-28T01:47:11.048Z,14.49
2022-10-28T01:50:24.863Z,14.49
2022-10-28T01:52:56.943Z,14.45
2022-10-28T01:55:33.806Z,14.43
2022-10-28T01:58:02.468Z,14.39
2022-10-28T02:00:31.666Z,14.37
2022-10-28T02:02:58.595Z,14.33
2022-10-28T02:05:49.450Z,14.29
2022-10-28T02:08:19.390Z,14.25
2022-10-28T02:11:11.533Z,14.22
2022-10-28T02:14:07.547Z,14.21
2022-10-28T02:17:00.686Z,14.16
2022-10-28T02:20:10.116Z,14.14
2022-10-28T02:22:51.447Z,14.13
2022-10-28T02:25:43.479Z,14.10
2022-10-28T02:28:18.178Z,14.09
2022-10-28T02:31:21.290Z,14.07
2022-10-28T02:33:55.681Z,14.06
2022-10-28T02:36:25.233Z,14.01
2022-10-28T02:38:58.273Z,14.01
2022-10-28T02:41:34.680Z,14.00
2022-10-28T02:44:08.925Z,13.98
2022-10-28T02:46:39.682Z,13.96
2022-10-28T02:49:13.263Z,13.93
2022-10-28T02:51:53.750Z,13.92
2022-10-28T02:54:26.537Z,13.89
2022-10-28T02:57:04.206Z,13.89
2022-10-28T02:59:31.104Z,13.86
2022-10-28T03:01:58.099Z,13.85
2022-10-28T03:04:25.101Z,13.83
2022-10-28T03:06:52.004Z,13.81
2022-10-28T03:09:18.887Z,13.78
2022-10-28T03:11:45.804Z,13.76
2022-10-28T03:14:14.700Z,13.73
2022-10-28T03:16:42.427Z,13.69
2022-10-28T03:21:41.205Z,13.63
2022-10-28T03:24:08.122Z,13.57
2022-10-28T03:26:35.019Z,13.55
2022-10-28T03:29:01.931Z,13.53
2022-10-28T03:31:28.854Z,13.51
2022-10-28T03:33:55.875Z,13.49
2022-10-28T03:36:22.844Z,13.46
2022-10-28T03:38:49.743Z,13.45
2022-10-28T03:41:16.708Z,13.42
2022-10-28T03:43:44.033Z,13.38
2022-10-28T03:46:10.909Z,13.36
2022-10-28T03:48:37.776Z,13.34
2022-10-28T03:51:04.989Z,13.29
2022-10-28T03:53:31.916Z,13.27
2022-10-28T03:56:00.891Z,13.26
2022-10-28T03:58:28.386Z,13.25
2022-10-28T04:00:55.932Z,13.24
2022-10-28T04:03:24.554Z,13.22
2022-10-28T04:05:51.801Z,13.27
2022-10-28T04:08:20.086Z,13.20
2022-10-28T04:10:48.030Z,13.23
2022-10-28T04:13:16.256Z,13.23
2022-10-28T04:15:43.481Z,13.24
2022-10-28T04:18:10.599Z,13.22
2022-10-28T04:20:37.795Z,13.22
2022-10-28T04:23:04.769Z,13.20
2022-10-28T04:25:31.750Z,13.19
2022-10-28T04:27:58.925Z,13.15
2022-10-28T04:30:26.082Z,13.13
2022-10-28T04:32:53.062Z,13.12
2022-10-28T04:35:19.983Z,13.08
2022-10-28T04:37:46.875Z,13.07
2022-10-28T04:40:13.880Z,13.06
2022-10-28T04:42:40.813Z,13.03
2022-10-28T04:45:09.486Z,13.01
2022-10-28T04:47:36.458Z,13.00
2022-10-28T04:50:04.838Z,12.99
2022-10-28T04:52:31.736Z,13.00
2022-10-28T04:54:58.610Z,13.03
2022-10-28T04:57:25.620Z,13.02
2022-10-28T04:59:52.483Z,13.04
2022-10-28T05:02:19.450Z,13.03
2022-10-28T05:04:46.368Z,13.04
2022-10-28T05:07:13.252Z,13.03
2022-10-28T05:09:40.111Z,13.02
2022-10-28T05:12:07.089Z,13.02
2022-10-28T05:14:33.947Z,13.00
2022-10-28T05:17:00.823Z,12.99
2022-10-28T05:19:27.760Z,12.99
2022-10-28T05:21:54.624Z,12.98
2022-10-28T05:24:21.508Z,12.99
2022-10-28T05:26:48.402Z,12.98
2022-10-28T05:29:15.278Z,13.04
2022-10-28T05:31:42.149Z,13.07
2022-10-28T05:34:09.019Z,13.06
2022-10-28T05:36:35.929Z,13.09
2022-10-28T05:39:03.007Z,13.07
2022-10-28T05:41:29.874Z,13.11
2022-10-28T05:43:57.099Z,13.13
2022-10-28T05:46:24.049Z,13.15
2022-10-28T05:48:50.921Z,13.20
2022-10-28T05:51:17.795Z,13.20
2022-10-28T05:53:44.672Z,13.20
2022-10-28T05:56:11.578Z,13.23
2022-10-28T05:58:38.940Z,13.21
2022-10-28T06:01:09.463Z,13.23
2022-10-28T06:03:36.571Z,13.21
2022-10-28T06:06:03.685Z,13.21
2022-10-28T06:08:30.645Z,13.20
2022-10-28T06:10:56.049Z,13.21
2022-10-28T06:13:23.450Z,13.16
2022-10-28T06:15:55.214Z,13.17
2022-10-28T06:18:23.391Z,13.16
2022-10-28T06:20:57.933Z,13.13
2022-10-28T06:23:27.461Z,13.11
2022-10-28T06:26:03.162Z,13.10
2022-10-28T06:28:31.052Z,13.08
2022-10-28T06:31:02.736Z,13.10
2022-10-28T06:33:31.429Z,13.10
2022-10-28T06:35:59.420Z,13.10
2022-10-28T06:38:28.060Z,13.11
2022-10-28T06:40:59.810Z,13.15
2022-10-28T06:43:26.987Z,13.19
2022-10-28T06:45:55.579Z,13.20
2022-10-28T06:48:24.777Z,13.22
2022-10-28T06:50:54.237Z,13.23
2022-10-28T06:53:21.118Z,13.27
2022-10-28T06:55:58.417Z,13.30
2022-10-28T06:58:27.230Z,13.30
2022-10-28T07:00:54.583Z,13.37
2022-10-28T07:03:21.971Z,13.40
2022-10-28T07:05:51.374Z,13.47
2022-10-28T07:08:18.351Z,13.46
2022-10-28T07:10:52.560Z,13.51
2022-10-28T07:13:19.438Z,13.50
2022-10-28T07:15:50.410Z,13.55
2022-10-28T07:18:17.342Z,13.55
2022-10-28T07:20:44.267Z,13.60
2022-10-28T07:23:11.234Z,13.62
2022-10-28T07:25:38.344Z,13.66
2022-10-28T07:28:05.667Z,13.68
2022-10-28T07:30:32.730Z,13.72
2022-10-28T07:33:01.091Z,13.76
2022-10-28T07:35:29.013Z,13.79
2022-10-28T07:37:55.999Z,13.85
2022-10-28T07:40:24.613Z,13.86
2022-10-28T07:42:52.420Z,13.92
2022-10-28T07:45:19.913Z,13.95
2022-10-28T07:47:46.912Z,14.04
2022-10-28T07:50:14.076Z,14.08
2022-10-28T07:52:41.249Z,14.20
2022-10-28T07:55:08.736Z,14.24
2022-10-28T07:57:35.835Z,14.34
2022-10-28T08:00:05.311Z,14.41
2022-10-28T08:02:32.218Z,14.53
2022-10-28T08:05:01.438Z,14.60
2022-10-28T08:07:28.818Z,14.69
2022-10-28T08:09:55.729Z,14.83
2022-10-28T08:12:22.599Z,14.92
2022-10-28T08:14:49.568Z,14.92
2022-10-28T08:17:16.870Z,15.04
2022-10-28T08:19:43.749Z,15.07
2022-10-28T08:22:10.668Z,15.14
2022-10-28T08:24:37.631Z,15.20
2022-10-28T08:27:05.231Z,15.29
2022-10-28T08:29:32.335Z,15.42
2022-10-28T08:31:59.205Z,15.51
2022-10-28T08:34:29.723Z,15.66
2022-10-28T08:36:57.607Z,15.77
2022-10-28T08:39:24.740Z,15.82
2022-10-28T08:42:34.684Z,15.97
2022-10-28T08:45:29.944Z,16.07
2022-10-28T08:48:18.100Z,16.12
2022-10-28T08:51:01.512Z,16.19
2022-10-28T08:53:46.407Z,16.24
2022-10-28T08:56:34.467Z,16.34
2022-10-28T08:59:06.137Z,16.35
2022-10-28T09:01:48.645Z,16.49
2022-10-28T09:04:40.431Z,16.51
2022-10-28T09:07:19.972Z,16.58
2022-10-28T09:09:49.374Z,16.63
2022-10-28T09:12:33.718Z,16.72
2022-10-28T09:15:18.927Z,16.83
2022-10-28T09:17:55.521Z,16.96
2022-10-28T09:20:48.719Z,16.96
2022-10-28T09:23:28.290Z,17.05
2022-10-28T09:26:09.838Z,17.12
2022-10-28T09:29:02.806Z,17.17
2022-10-28T09:31:40.230Z,17.23
2022-10-28T09:34:38.897Z,17.29
2022-10-28T09:37:49.351Z,17.37
2022-10-28T09:40:26.062Z,17.49
2022-10-28T09:43:08.209Z,17.52
2022-10-28T09:45:42.904Z,17.49
2022-10-28T09:48:20.741Z,17.57
2022-10-28T09:50:52.611Z,17.63
2022-10-28T09:53:46.372Z,17.66
2022-10-28T09:56:14.045Z,17.68
2022-10-28T09:58:48.650Z,17.69
2022-10-28T10:01:18.610Z,17.85
2022-10-28T10:03:49.699Z,17.95
2022-10-28T10:06:29.573Z,18.10
2022-10-28T10:08:57.279Z,18.23
2022-10-28T10:11:39.971Z,18.37
2022-10-28T10:14:15.298Z,18.49
2022-10-28T10:17:03.111Z,18.62
2022-10-28T10:20:20.637Z,18.88
2022-10-28T10:22:49.657Z,19.25
2022-10-28T10:25:19.343Z,19.63
2022-10-28T10:28:05.929Z,19.73
2022-10-28T10:30:46.668Z,19.75
2022-10-28T10:33:22.606Z,19.65
2022-10-28T10:36:17.441Z,19.77
2022-10-28T10:38:56.071Z,20.07
2022-10-28T10:41:40.822Z,20.33
2022-10-28T10:44:32.049Z,20.52
2022-10-28T10:47:06.275Z,20.59
2022-10-28T10:49:35.353Z,20.62
2022-10-28T10:52:10.304Z,20.65
2022-10-28T10:54:38.489Z,20.65
2022-10-28T10:57:19.731Z,20.72
2022-10-28T10:59:51.040Z,20.82
2022-10-28T11:02:27.542Z,20.74
2022-10-28T11:05:00.226Z,20.67
2022-10-28T11:07:28.677Z,20.48
2022-10-28T11:09:56.084Z,20.48
2022-10-28T11:12:35.491Z,20.42
2022-10-28T11:15:22.079Z,20.34
2022-10-28T11:18:16.831Z,20.12
2022-10-28T11:21:00.728Z,20.04
2022-10-28T11:23:54.867Z,19.96
2022-10-28T11:26:24.202Z,19.98
2022-10-28T11:29:10.279Z,19.93
2022-10-28T11:32:21.532Z,19.93
2022-10-28T11:35:29.869Z,19.88
2022-10-28T11:38:25.486Z,19.77
2022-10-28T11:41:08.461Z,19.77
2022-10-28T11:43:57.666Z,19.83
2022-10-28T11:46:53.345Z,19.84
2022-10-28T11:49:42.182Z,19.92
2022-10-28T11:52:38.979Z,19.90
2022-10-28T11:55:33.206Z,19.96
2022-10-28T11:58:42.198Z,19.91
2022-10-28T12:01:43.662Z,20.00
2022-10-28T12:04:59.406Z,20.02
2022-10-28T12:07:47.735Z,19.98
2022-10-28T12:10:25.042Z,20.02
2022-10-28T12:13:14.546Z,20.09
2022-10-28T12:15:59.484Z,20.14
2022-10-28T12:18:47.645Z,20.15
2022-10-28T12:21:40.662Z,20.05
2022-10-28T12:24:16.107Z,20.09
2022-10-28T12:26:49.155Z,20.09
2022-10-28T12:29:28.298Z,19.99
2022-10-28T12:32:14.079Z,20.02
2022-10-28T12:34:53.255Z,20.03
2022-10-28T12:37:38.662Z,20.00
2022-10-28T12:40:30.595Z,19.97
2022-10-28T12:43:26.389Z,19.97
2022-10-28T12:45:56.586Z,19.93
2022-10-28T12:48:55.089Z,19.92
2022-10-28T12:51:36.046Z,19.84
2022-10-28T12:55:02.238Z,19.83
2022-10-28T12:57:34.142Z,19.83
2022-10-28T13:00:18.591Z,19.84
2022-10-28T13:03:08.041Z,19.80
2022-10-28T13:05:52.849Z,19.76
2022-10-28T13:08:43.201Z,19.78
2022-10-28T13:11:18.983Z,19.76
2022-10-28T13:14:23.187Z,19.69
2022-10-28T13:17:30.778Z,19.70
2022-10-28T13:19:57.580Z,19.67
2022-10-28T13:22:49.558Z,19.60
2022-10-28T13:25:34.005Z,19.57
2022-10-28T13:28:01.511Z,19.58
2022-10-28T13:30:32.099Z,19.60
2022-10-28T13:33:07.373Z,19.56
2022-10-28T13:35:35.192Z,19.51
2022-10-28T13:38:03.639Z,19.54
2022-10-28T13:40:36.215Z,19.55
2022-10-28T13:43:03.149Z,19.51
2022-10-28T13:45:54.306Z,19.55
2022-10-28T13:48:30.236Z,19.56
2022-10-28T13:51:12.110Z,19.55
2022-10-28T13:53:50.376Z,19.51
2022-10-28T13:56:26.706Z,19.46
2022-10-28T13:59:16.870Z,19.48
2022-10-28T14:02:33.762Z,19.48
2022-10-28T14:05:07.364Z,19.45
2022-10-28T14:07:38.538Z,19.49
2022-10-28T14:10:22.575Z,19.44
2022-10-28T14:13:00.049Z,19.44
2022-10-28T14:15:34.715Z,19.44
2022-10-28T14:18:37.556Z,19.42
2022-10-28T14:21:01.557Z,19.39
2022-10-28T14:23:28.745Z,19.40
2022-10-28T14:25:56.112Z,19.38
2022-10-28T14:28:31.847Z,19.38
2022-10-28T14:31:11.366Z,19.40
2022-10-28T14:33:44.318Z,19.39
2022-10-28T14:36:20.082Z,19.34
2022-10-28T14:39:26.628Z,19.36
2022-10-28T14:42:27.174Z,19.34
2022-10-28T14:45:19.042Z,19.29
2022-10-28T14:48:20.075Z,19.31
2022-10-28T14:50:51.325Z,19.30
2022-10-28T14:53:32.053Z,19.24
2022-10-28T14:56:11.475Z,19.25
2022-10-28T14:58:42.466Z,19.22
2022-10-28T15:01:18.785Z,19.21
2022-10-28T15:03:59.330Z,19.21
2022-10-28T15:06:40.522Z,19.18
2022-10-28T15:09:16.485Z,19.19
2022-10-28T15:11:48.059Z,19.14
2022-10-28T15:14:28.892Z,19.12
2022-10-28T15:16:56.697Z,19.08
2022-10-28T15:19:27.243Z,19.06
2022-10-28T15:22:10.381Z,19.04
2022-10-28T15:24:38.154Z,19.02
2022-10-28T15:27:05.758Z,19.02
2022-10-28T15:29:32.937Z,19.00
2022-10-28T15:32:16.068Z,18.90
2022-10-28T15:34:44.251Z,18.94
2022-10-28T15:37:20.688Z,18.91
2022-10-28T15:39:52.218Z,18.89
2022-10-28T15:42:42.733Z,18.84
2022-10-28T15:45:19.917Z,18.89
2022-10-28T15:47:48.059Z,18.82
2022-10-28T15:50:14.944Z,18.78
2022-10-28T15:52:51.145Z,18.80
2022-10-28T15:55:35.803Z,18.75
2022-10-28T15:58:19.419Z,18.77
2022-10-28T16:00:54.421Z,18.74
2022-10-28T16:03:39.840Z,18.72
2022-10-28T16:06:30.732Z,18.69
2022-10-28T16:09:09.841Z,18.70
2022-10-28T16:11:43.714Z,18.65
2022-10-28T16:14:44.481Z,18.60
2022-10-28T16:17:24.836Z,18.59
2022-10-28T16:20:03.651Z,18.53
2022-10-28T16:22:32.625Z,18.49
2022-10-28T16:24:59.566Z,18.46
2022-10-28T16:27:32.581Z,18.43
2022-10-28T16:29:59.605Z,18.37
2022-10-28T16:32:37.902Z,18.34
2022-10-28T16:35:14.087Z,18.31
2022-10-28T16:37:44.848Z,18.32
2022-10-28T16:40:37.787Z,18.31
2022-10-28T16:43:02.114Z,18.30
2022-10-28T16:45:28.980Z,18.31
2022-10-28T16:47:56.276Z,18.34
2022-10-28T16:50:23.503Z,18.31
2022-10-28T16:52:50.448Z,18.32
2022-10-28T16:55:19.303Z,18.33
2022-10-28T16:57:46.205Z,18.29
2022-10-28T17:00:16.559Z,18.28
2022-10-28T17:02:43.489Z,18.31
2022-10-28T17:05:21.168Z,18.30
2022-10-28T17:07:48.379Z,18.28
2022-10-28T17:10:16.752Z,18.26
2022-10-28T17:12:43.647Z,18.22
2022-10-28T17:15:11.117Z,18.19
2022-10-28T17:17:38.009Z,18.15
2022-10-28T17:20:06.029Z,18.08
2022-10-28T17:22:32.985Z,18.00
2022-10-28T17:25:00.042Z,18.03
2022-10-28T17:27:26.965Z,18.02
2022-10-28T17:29:53.958Z,17.97
2022-10-28T17:32:20.971Z,17.96
2022-10-28T17:34:47.859Z,17.88
2022-10-28T17:37:14.760Z,17.90
2022-10-28T17:39:42.462Z,17.83
2022-10-28T17:42:09.974Z,17.78
2022-10-28T17:44:37.027Z,17.72
2022-10-28T17:47:04.100Z,17.72
2022-10-28T17:49:32.591Z,17.71
2022-10-28T17:51:59.523Z,17.64
2022-10-28T17:54:27.359Z,17.62
2022-10-28T17:56:54.231Z,17.63
2022-10-28T17:59:21.104Z,17.61
2022-10-28T18:01:48.147Z,17.59
2022-10-28T18:04:15.190Z,17.60
2022-10-28T18:06:42.067Z,17.57
2022-10-28T18:09:13.096Z,17.55
2022-10-28T18:11:40.755Z,17.52
2022-10-28T18:14:07.685Z,17.50
2022-10-28T18:16:37.212Z,17.45
2022-10-28T18:19:06.287Z,17.37
2022-10-28T18:21:33.776Z,17.38
2022-10-28T18:24:03.869Z,17.30
2022-10-28T18:26:33.726Z,17.23
2022-10-28T18:29:03.812Z,17.21
2022-10-28T18:31:33.090Z,17.20
2022-10-28T18:34:00.901Z,17.12
2022-10-28T18:36:33.892Z,17.09
2022-10-28T18:39:01.230Z,17.08
2022-10-28T18:41:30.248Z,17.09
2022-10-28T18:44:00.493Z,17.06
2022-10-28T18:46:29.525Z,17.04
2022-10-28T18:51:27.982Z,17.04
2022-10-28T18:53:56.472Z,17.02
2022-10-28T18:56:29.067Z,16.98
2022-10-28T18:58:57.598Z,16.97
2022-10-28T19:01:27.936Z,16.95
2022-10-28T19:04:00.800Z,16.85
2022-10-28T19:06:32.559Z,16.77
2022-10-28T19:09:05.030Z,16.74
2022-10-28T19:11:33.553Z,16.70
2022-10-28T19:14:04.957Z,16.63
2022-10-28T19:16:34.081Z,16.56
2022-10-28T19:19:03.512Z,16.48
2022-10-28T19:21:30.655Z,16.43
2022-10-28T19:23:57.876Z,16.34
2022-10-28T19:26:25.049Z,16.22
2022-10-28T19:28:52.295Z,16.23
2022-10-28T19:31:23.181Z,16.13
2022-10-28T19:33:53.128Z,16.06
2022-10-28T19:36:23.298Z,15.91
2022-10-28T19:38:53.458Z,15.84
2022-10-28T19:41:23.639Z,15.87
2022-10-28T19:43:58.924Z,15.87
2022-10-28T19:46:28.867Z,15.82
2022-10-28T19:48:59.073Z,15.77
2022-10-28T19:51:40.461Z,15.80
2022-10-28T19:54:12.983Z,15.80
2022-10-28T19:56:42.559Z,15.78
2022-10-28T19:59:09.489Z,15.74
2022-10-28T20:01:39.127Z,15.73
2022-10-28T20:04:07.565Z,15.70
2022-10-28T20:06:37.702Z,15.69
2022-10-28T20:09:05.735Z,15.66
2022-10-28T20:11:37.348Z,15.64
2022-10-28T20:14:09.417Z,15.64
2022-10-28T20:16:36.871Z,15.59
2022-10-28T20:19:04.588Z,15.55
2022-10-28T20:21:33.805Z,15.52
2022-10-28T20:24:01.019Z,15.47
2022-10-28T20:26:31.459Z,15.43
2022-10-28T20:28:59.541Z,15.38
2022-10-28T20:31:29.606Z,15.34
2022-10-28T20:34:00.480Z,15.28
2022-10-28T20:36:30.574Z,15.22
2022-10-28T20:39:08.742Z,15.19
2022-10-28T20:41:38.335Z,15.08
2022-10-28T20:44:06.596Z,15.05
2022-10-28T20:46:34.805Z,15.04
2022-10-28T20:49:02.303Z,15.02
2022-10-28T20:51:32.100Z,14.94
2022-10-28T20:54:00.044Z,14.92
2022-10-28T20:56:30.304Z,14.88
2022-10-28T20:59:00.529Z,14.81
2022-10-28T21:01:39.825Z,14.79
2022-10-28T21:04:10.451Z,14.75
2022-10-28T21:06:38.849Z,14.71
2022-10-28T21:09:06.785Z,14.68
2022-10-28T21:11:33.714Z,14.66
2022-10-28T21:14:02.271Z,14.63
2022-10-28T21:16:30.351Z,14.58
2022-10-28T21:18:59.050Z,14.52
2022-10-28T21:21:26.692Z,14.48
2022-10-28T21:23:53.654Z,14.43
2022-10-28T21:26:20.960Z,14.39
2022-10-28T21:28:52.592Z,14.37
2022-10-28T21:31:21.323Z,14.34
2022-10-28T21:36:19.802Z,14.22
2022-10-28T21:38:47.196Z,14.22
2022-10-28T21:41:22.155Z,14.20
2022-10-28T21:43:51.381Z,14.15
2022-10-28T21:46:20.017Z,14.14
2022-10-28T21:48:47.693Z,14.10
2022-10-28T21:51:16.885Z,14.05
2022-10-28T21:53:45.139Z,14.02
2022-10-28T21:56:18.235Z,13.95
2022-10-28T21:58:48.697Z,13.93
2022-10-28T22:01:20.061Z,13.91
2022-10-28T22:03:47.553Z,13.88
2022-10-28T22:06:15.095Z,13.83
2022-10-28T22:08:42.300Z,13.76
2022-10-28T22:11:15.974Z,13.74
2022-10-28T22:13:43.145Z,13.73
2022-10-28T22:16:16.963Z,13.71
2022-10-28T22:18:44.931Z,13.67
2022-10-28T22:21:16.850Z,13.64
2022-10-28T22:23:44.089Z,13.59
2022-10-28T22:26:16.098Z,13.58
2022-10-28T22:28:44.013Z,13.57
2022-10-28T22:31:14.785Z,13.55
2022-10-28T22:33:42.255Z,13.53
2022-10-28T22:36:19.203Z,13.51
2022-10-28T22:38:46.683Z,13.51
2022-10-28T22:41:15.035Z,13.52
2022-10-28T22:43:44.067Z,13.48
2022-10-28T22:46:12.153Z,13.46
2022-10-28T22:48:39.057Z,13.46
2022-10-28T22:51:06.185Z,13.44
2022-10-28T22:53:33.118Z,13.44
2022-10-28T22:56:00.003Z,13.43
2022-10-28T22:58:27.827Z,13.40
2022-10-28T23:01:03.967Z,13.40
2022-10-28T23:03:39.101Z,13.39
2022-10-28T23:06:06.653Z,13.34
2022-10-28T23:08:34.238Z,13.35
2022-10-28T23:11:01.334Z,13.35
2022-10-28T23:13:28.309Z,13.35
2022-10-28T23:15:55.331Z,13.33
2022-10-28T23:18:28.034Z,13.31
2022-10-28T23:20:54.917Z,13.29
2022-10-28T23:23:21.813Z,13.28
2022-10-28T23:25:55.094Z,13.26
2022-10-28T23:28:21.989Z,13.23
2022-10-28T23:30:49.060Z,13.22
2022-10-28T23:33:15.940Z,13.19
2022-10-28T23:35:42.968Z,13.16
2022-10-28T23:38:11.684Z,13.11
2022-10-28T23:40:38.932Z,13.09
2022-10-28T23:43:05.850Z,13.08
2022-10-28T23:45:32.702Z,13.05
2022-10-28T23:47:59.559Z,13.02
2022-10-28T23:50:26.426Z,13.00
2022-10-28T23:52:55.459Z,12.98
2022-10-28T23:55:22.652Z,12.98
2022-10-28T23:57:49.590Z,12.94
